Flight Track Log - Related Links

Times and Time Zones

All times are in EDT time to prevent confusion due to time zone crossing. See the SWA771 flight status page for this flight to view local times or setup timezone preferences in your user account.

Time Position Orientation Groundspeed Altitude Reporting Facility
EDT Latitude Longitude Course Direction KTS MPH feet Rate Location/Type
Sat 09:09:57 PM 39.8000 -104.6667 210° Southwest 185 213 7,100  Level Denver TRACON
Sat 09:10:57 PM 39.7333 -104.6833 191° South 255 293 9,300 2,300 Climbing Denver TRACON
Sat 09:11:57 PM 39.6667 -104.7333 210° Southwest 311 358 11,700 3,048 Climbing Denver TRACON
Sat 09:13:03 PM 39.5736 -104.7950 207° Southwest 341 392 15,700 2,882 Climbing Denver Center
Sat 09:14:04 PM 39.5014 -104.8397 206° Southwest 370 426 17,800 3,073 Climbing Denver Center
Sat 09:15:00 PM 39.5082 -104.4814 210° Southwest  Level FlightAware Approximate
Sat 09:15:06 PM 39.3817 -104.9131 205° Southwest 391 450 22,000  Level Denver Center
Sat 09:16:06 PM 39.3019 -104.9622 206° Southwest 399 459 24,200 2,066 Climbing Denver Center
Sat 09:17:08 PM 39.1806 -105.0378 206° Southwest 418 481 26,200 2,000 Climbing Denver Center
Sat 09:18:09 PM 39.0753 -105.1036 206° Southwest 415 478 28,300 1,951 Climbing Denver Center
Sat 09:19:11 PM 38.9644 -105.1744 206° Southwest 434 499 30,200 2,488 Climbing Denver Center
Sat 09:20:12 PM 38.8356 -105.2578 207° Southwest 440 506 33,400 2,754 Climbing Denver Center
Sat 09:21:13 PM 38.7306 -105.3236 206° Southwest 420 483 35,800 1,820 Climbing Denver Center
Sat 09:22:14 PM 38.6264 -105.3906 207° Southwest 415 478 37,100 1,122 Climbing Denver Center
Sat 09:23:16 PM 38.5189 -105.4581 206° Southwest 424 488 38,100 1,024 Climbing Denver Center
Sat 09:24:17 PM 38.4106 -105.5278 207° Southwest 431 496 39,200 934 Climbing Denver Center
Sat 09:25:18 PM 38.3031 -105.5947 206° Southwest 435 501 40,000 393 Climbing Denver Center
Sat 09:26:19 PM 38.1983 -105.6597 206° Southwest 438 504 40,000  Level Denver Center
Sat 09:27:21 PM 38.0756 -105.7378 207° Southwest 440 506 40,000  Level Denver Center
Sat 09:28:22 PM 37.9800 -105.8178 213° Southwest 431 496 40,000  Level Denver Center
Sat 09:29:23 PM 37.8867 -105.9367 225° Southwest 427 491 40,000  Level Denver Center
Sat 09:30:37 PM 37.8064 -106.0383 225° Southwest 427 491 40,000  Level Denver Center
Sat 09:31:38 PM 37.7003 -106.1722 225° Southwest 423 487 40,000  Level Denver Center
Sat 09:32:40 PM 37.6142 -106.2814 225° Southwest 420 483 40,000  Level Denver Center
Sat 09:33:41 PM 37.5353 -106.3800 225° Southwest 418 481 40,000  Level Denver Center
Sat 09:34:42 PM 37.4569 -106.4775 225° Southwest 414 476 40,000  Level Denver Center
Sat 09:35:56 PM 37.3669 -106.5900 225° Southwest 411 473 40,000  Level Denver Center
Sat 09:36:57 PM 37.2797 -106.7014 225° Southwest 401 461 40,000  Level Denver Center
Sat 09:37:59 PM 37.1906 -106.8106 224° Southwest 400 460 40,000  Level Denver Center
Sat 09:39:01 PM 37.1147 -106.9067 225° Southwest 403 464 40,000  Level Denver Center
Sat 09:40:01 PM 37.0258 -107.0164 225° Southwest 403 464 40,000  Level Denver Center
Sat 09:41:03 PM 36.9494 -107.1103 225° Southwest 402 463 40,000  Level Denver Center
Sat 09:42:04 PM 36.8711 -107.2058 224° Southwest 408 470 40,000  Level Denver Center
Sat 09:43:05 PM 36.7817 -107.3164 225° Southwest 408 470 40,000  Level Denver Center
Sat 09:44:06 PM 36.7031 -107.4125 224° Southwest 411 473 40,000  Level Denver Center
Sat 09:45:08 PM 36.6108 -107.5242 224° Southwest 414 476 40,000  Level Denver Center
Sat 09:46:09 PM 36.5319 -107.6200 224° Southwest 412 474 40,000  Level Denver Center
Sat 09:47:10 PM 36.4533 -107.7147 224° Southwest 411 473 40,000  Level Denver Center
Sat 09:48:12 PM 36.3608 -107.8267 224° Southwest 413 475 40,000  Level Denver Center
Sat 09:49:13 PM 36.2822 -107.9203 224° Southwest 411 473 40,000  Level Denver Center
Sat 09:50:14 PM 36.2042 -108.0147 224° Southwest 409 471 40,000  Level Denver Center
Sat 09:51:27 PM 36.1125 -108.1236 224° Southwest 408 470 40,000  Level Denver Center
Sat 09:52:29 PM 36.0192 -108.2350 224° Southwest 413 475 40,000  Level Denver Center
Sat 09:52:44 PM 35.9922 -108.2675 224° Southwest 414 476 40,000  Level Albuquerque Center
Sat 09:53:45 PM 35.9108 -108.3639 224° Southwest 418 481 40,000  Level Albuquerque Center
Sat 09:54:45 PM 35.8178 -108.4747 224° Southwest 416 479 40,000  Level Albuquerque Center
Sat 09:55:46 PM 35.7381 -108.5681 224° Southwest 412 474 40,000  Level Albuquerque Center
Sat 09:56:47 PM 35.6636 -108.6669 227° Southwest 408 470 40,000 -98 Level Albuquerque Center
Sat 09:57:48 PM 35.5742 -108.7814 226° Southwest 412 474 39,800 -590 Descending Albuquerque Center
Sat 09:58:49 PM 35.4956 -108.8792 225° Southwest 416 479 38,800 -942 Descending Albuquerque Center
Sat 09:59:49 PM 35.4183 -108.9769 226° Southwest 416 479 37,900 -942 Descending Albuquerque Center
Sat 10:00:50 PM 35.3306 -109.0886 226° Southwest 410 472 36,900 -984 Descending Albuquerque Center
Sat 10:01:51 PM 35.2533 -109.1853 226° Southwest 412 474 35,900 -443 Descending Albuquerque Center
Sat 10:02:52 PM 35.1772 -109.2786 225° Southwest 408 470 36,000 49 Climbing Albuquerque Center
Sat 10:03:53 PM 35.0892 -109.3903 226° Southwest 407 468 36,000  Level Albuquerque Center
Sat 10:04:53 PM 35.0106 -109.4831 224° Southwest 409 471 36,000  Level Albuquerque Center
Sat 10:05:54 PM 34.9336 -109.5764 225° Southwest 407 468 36,000  Level Albuquerque Center
Sat 10:06:55 PM 34.8439 -109.6878 226° Southwest 410 472 36,000  Level Albuquerque Center
Sat 10:07:56 PM 34.7675 -109.7822 225° Southwest 411 473 36,000  Level Albuquerque Center
Sat 10:08:57 PM 34.6936 -109.8794 227° Southwest 409 471 36,000  Level Albuquerque Center
Sat 10:09:57 PM 34.6292 -110.0108 239° Southwest 404 465 36,000  Level Albuquerque Center
Sat 10:10:58 PM 34.5728 -110.1236 239° Southwest 406 467 36,000  Level Albuquerque Center
Sat 10:11:59 PM 34.5125 -110.2261 235° Southwest 396 456 36,000 -738 Level Albuquerque Center
Sat 10:13:00 PM 34.4456 -110.3550 238° Southwest 400 460 34,500 -1,721 Descending Albuquerque Center
Sat 10:14:01 PM 34.4000 -110.4500 240° Southwest 398 458 32,500 -2,066 Descending Albuquerque Center
Sat 10:15:02 PM 34.3433 -110.5581 238° Southwest 386 444 30,300 -2,182 Descending Albuquerque Center
Sat 10:16:02 PM 34.2875 -110.6600 236° Southwest 368 423 28,100 -2,380 Descending Albuquerque Center
Sat 10:17:03 PM 34.2169 -110.7806 235° Southwest 366 421 25,500 -2,361 Descending Albuquerque Center
Sat 10:18:04 PM 34.1625 -110.8858 238° Southwest 369 425 23,300 -2,164 Descending Albuquerque Center
Sat 10:19:05 PM 34.1078 -110.9858 237° Southwest 363 418 21,100 -2,083 Descending Albuquerque Center
Sat 10:20:05 PM 34.0564 -111.0817 237° Southwest 348 400 19,100 -2,132 Descending Albuquerque Center
Sat 10:21:06 PM 34.0067 -111.1742 237° Southwest 335 386 16,800 -2,066 Descending Albuquerque Center
Sat 10:22:07 PM 33.9583 -111.2636 237° Southwest 321 369 14,900 -1,918 Descending Albuquerque Center
Sat 10:23:08 PM 33.9108 -111.3511 237° Southwest 313 360 12,900 -1,574 Descending Albuquerque Center
Sat 10:24:09 PM 33.8592 -111.4261 230° Southwest 291 335 11,700 -942 Descending Albuquerque Center
Sat 10:25:09 PM 33.7958 -111.4781 214° Southwest 276 318 11,000 -843 Descending Albuquerque Center
Sat 10:26:10 PM 33.7358 -111.5300 216° Southwest 266 306 10,000 -1,033 Descending Albuquerque Center
Sat 10:27:11 PM 33.6794 -111.5783 216° Southwest 252 290 8,900 -885 Descending Albuquerque Center
Sat 10:28:12 PM 33.6261 -111.6242 216° Southwest 234 269 8,200 -942 Descending Albuquerque Center
Sat 10:29:12 PM 33.5806 -111.6736 222° Southwest 224 258 7,000 -1,388 Descending Albuquerque Center
Sat 10:30:13 PM 33.5383 -111.7369 231° Southwest 240 276 5,400 -1,475 Descending Albuquerque Center
Sat 10:31:14 PM 33.4942 -111.8011 230° Southwest 248 285 4,000 -836 Descending Albuquerque Center
Sat 10:32:15 PM 33.4564 -111.8561 231° Southwest 202 232 3,700 -689 Descending Albuquerque Center
Sat 10:33:16 PM 33.4317 -111.9003 236° Southwest 152 175 2,600 -942 Descending Albuquerque Center
Sat 10:34:16 PM 33.4314 -111.9458 270° West 137 158 1,800 -744 Descending Albuquerque Center
Sat 10:35:17 PM 33.4308 -111.9925 269° West 125 144 1,100 -689 Descending Albuquerque Center
Sat 10:37:00 PM 33.4343 -112.0116 270° West  Level Estimated

Login

Don't have an account? Register now (free) for customized features, flight alerts, and more!